South Elgin, Illinois
Current Conditions -  °F | °C
As of 11:52 AM on Monday 22 Dec 2014 (Local Time) from KDPA Reporting Station
Light Rain Light Rain  
Wind Chill: 28°   Ceiling: 3700
Heat Index: 35°   Visibility: 4mi
Dew Point: 30°   Wind: 9mph
Humidity: 82%   Direction: 100°E
Pressure: 29.79"   Gusts: NA
Location:  41.99°N, 88.29°W
Report Text: KDPA 221752Z 10008KT 4SM -RA SCT028 OVC037 02/M01 A2979 RMK AO2 SLP093 P0000 60000 T00171011 10017 20000 58028
Loading
Personal Weather Stations






























Interactive Weather Map New forecast layout! Learn more

10-Day Weather Forecast

Advertisements
Track Severe Weather on mobile